sensor_id;sensor_type;location;lat;lon;timestamp;temperature;humidity
10453;DHT22;5274;51.992;8.518;2024-03-23T00:53:30;8.50;71.90
10453;DHT22;5274;51.992;8.518;2024-03-23T00:55:56;8.40;71.80
10453;DHT22;5274;51.992;8.518;2024-03-23T00:58:21;8.40;72.90
10453;DHT22;5274;51.992;8.518;2024-03-23T01:00:47;8.40;72.90
10453;DHT22;5274;51.992;8.518;2024-03-23T01:03:12;8.40;73.50
10453;DHT22;5274;51.992;8.518;2024-03-23T01:05:38;8.30;73.40
10453;DHT22;5274;51.992;8.518;2024-03-23T01:08:04;8.30;74.20
10453;DHT22;5274;51.992;8.518;2024-03-23T01:10:30;8.30;74.40
10453;DHT22;5274;51.992;8.518;2024-03-23T01:12:55;8.30;73.80
10453;DHT22;5274;51.992;8.518;2024-03-23T01:15:21;8.30;73.70
10453;DHT22;5274;51.992;8.518;2024-03-23T01:17:46;8.30;73.80
10453;DHT22;5274;51.992;8.518;2024-03-23T01:20:12;8.30;74.00
10453;DHT22;5274;51.992;8.518;2024-03-23T01:22:38;8.30;74.00
10453;DHT22;5274;51.992;8.518;2024-03-23T01:25:03;8.20;75.00
10453;DHT22;5274;51.992;8.518;2024-03-23T01:27:29;8.20;75.30
10453;DHT22;5274;51.992;8.518;2024-03-23T01:29:54;8.30;75.50
10453;DHT22;5274;51.992;8.518;2024-03-23T01:32:20;8.50;73.30
10453;DHT22;5274;51.992;8.518;2024-03-23T01:34:45;8.60;73.20
10453;DHT22;5274;51.992;8.518;2024-03-23T01:37:11;8.60;73.20
10453;DHT22;5274;51.992;8.518;2024-03-23T01:39:36;8.60;73.20
10453;DHT22;5274;51.992;8.518;2024-03-23T01:42:02;8.60;73.30
10453;DHT22;5274;51.992;8.518;2024-03-23T01:44:28;8.40;73.70
10453;DHT22;5274;51.992;8.518;2024-03-23T01:46:53;8.30;74.60
10453;DHT22;5274;51.992;8.518;2024-03-23T01:49:19;8.30;74.60
10453;DHT22;5274;51.992;8.518;2024-03-23T01:51:44;8.20;75.10
10453;DHT22;5274;51.992;8.518;2024-03-23T01:54:10;8.10;76.00
10453;DHT22;5274;51.992;8.518;2024-03-23T01:56:36;8.20;75.80
10453;DHT22;5274;51.992;8.518;2024-03-23T01:59:08;8.20;75.70
10453;DHT22;5274;51.992;8.518;2024-03-23T02:01:35;8.20;75.30
10453;DHT22;5274;51.992;8.518;2024-03-23T02:04:04;8.20;75.70
10453;DHT22;5274;51.992;8.518;2024-03-23T02:06:30;8.30;75.00
10453;DHT22;5274;51.992;8.518;2024-03-23T02:08:55;8.30;74.70
10453;DHT22;5274;51.992;8.518;2024-03-23T02:11:21;8.20;75.30
10453;DHT22;5274;51.992;8.518;2024-03-23T02:13:47;8.20;75.10
10453;DHT22;5274;51.992;8.518;2024-03-23T02:16:12;8.20;75.10
10453;DHT22;5274;51.992;8.518;2024-03-23T02:18:41;8.20;75.10
10453;DHT22;5274;51.992;8.518;2024-03-23T02:21:06;8.20;74.90
10453;DHT22;5274;51.992;8.518;2024-03-23T02:23:32;8.20;75.50
10453;DHT22;5274;51.992;8.518;2024-03-23T02:25:57;8.20;75.20
10453;DHT22;5274;51.992;8.518;2024-03-23T02:28:23;8.30;74.20
10453;DHT22;5274;51.992;8.518;2024-03-23T02:30:49;8.20;74.40
10453;DHT22;5274;51.992;8.518;2024-03-23T02:33:15;8.10;74.90
10453;DHT22;5274;51.992;8.518;2024-03-23T02:35:40;8.10;75.40
10453;DHT22;5274;51.992;8.518;2024-03-23T02:38:06;8.20;74.80
10453;DHT22;5274;51.992;8.518;2024-03-23T02:40:31;8.20;73.60
10453;DHT22;5274;51.992;8.518;2024-03-23T02:42:57;8.10;73.40
10453;DHT22;5274;51.992;8.518;2024-03-23T02:45:23;8.10;73.20
10453;DHT22;5274;51.992;8.518;2024-03-23T02:47:48;8.00;73.10
10453;DHT22;5274;51.992;8.518;2024-03-23T02:50:18;8.00;73.70
10453;DHT22;5274;51.992;8.518;2024-03-23T02:52:43;8.00;73.90
10453;DHT22;5274;51.992;8.518;2024-03-23T02:55:09;8.00;73.10
10453;DHT22;5274;51.992;8.518;2024-03-23T02:57:34;8.00;72.90
10453;DHT22;5274;51.992;8.518;2024-03-23T03:00:00;8.00;73.00
10453;DHT22;5274;51.992;8.518;2024-03-23T03:02:25;8.00;72.80
10453;DHT22;5274;51.992;8.518;2024-03-23T03:04:51;8.00;72.40
10453;DHT22;5274;51.992;8.518;2024-03-23T03:07:16;7.90;72.80
10453;DHT22;5274;51.992;8.518;2024-03-23T03:09:42;7.90;73.40
10453;DHT22;5274;51.992;8.518;2024-03-23T03:12:07;7.90;73.40
10453;DHT22;5274;51.992;8.518;2024-03-23T03:14:34;8.00;72.60
10453;DHT22;5274;51.992;8.518;2024-03-23T03:16:59;7.90;72.60
10453;DHT22;5274;51.992;8.518;2024-03-23T03:19:25;8.00;72.20
10453;DHT22;5274;51.992;8.518;2024-03-23T03:21:50;8.10;72.30
10453;DHT22;5274;51.992;8.518;2024-03-23T03:24:16;8.00;72.20
10453;DHT22;5274;51.992;8.518;2024-03-23T03:26:42;7.80;73.30
10453;DHT22;5274;51.992;8.518;2024-03-23T03:29:07;7.80;73.50
10453;DHT22;5274;51.992;8.518;2024-03-23T03:31:33;7.80;73.20
10453;DHT22;5274;51.992;8.518;2024-03-23T03:33:58;7.80;73.70
10453;DHT22;5274;51.992;8.518;2024-03-23T03:36:24;7.80;73.60
10453;DHT22;5274;51.992;8.518;2024-03-23T03:38:49;7.80;73.20
10453;DHT22;5274;51.992;8.518;2024-03-23T03:41:15;7.70;73.10
10453;DHT22;5274;51.992;8.518;2024-03-23T03:43:41;7.70;73.30
10453;DHT22;5274;51.992;8.518;2024-03-23T03:46:06;7.60;73.10
10453;DHT22;5274;51.992;8.518;2024-03-23T03:48:33;7.50;73.80
10453;DHT22;5274;51.992;8.518;2024-03-23T03:50:59;7.60;74.00
10453;DHT22;5274;51.992;8.518;2024-03-23T03:53:25;7.40;74.30
10453;DHT22;5274;51.992;8.518;2024-03-23T03:55:50;7.40;74.80
10453;DHT22;5274;51.992;8.518;2024-03-23T03:58:16;7.50;74.20
10453;DHT22;5274;51.992;8.518;2024-03-23T04:00:41;7.40;74.60
10453;DHT22;5274;51.992;8.518;2024-03-23T04:03:07;7.40;74.90
10453;DHT22;5274;51.992;8.518;2024-03-23T04:05:32;7.50;74.70
10453;DHT22;5274;51.992;8.518;2024-03-23T04:07:58;7.60;74.00
10453;DHT22;5274;51.992;8.518;2024-03-23T04:10:24;7.70;73.60
10453;DHT22;5274;51.992;8.518;2024-03-23T04:12:50;7.70;73.80
10453;DHT22;5274;51.992;8.518;2024-03-23T04:15:16;7.70;74.00
10453;DHT22;5274;51.992;8.518;2024-03-23T04:17:41;7.60;73.80
10453;DHT22;5274;51.992;8.518;2024-03-23T04:20:08;7.60;74.10
10453;DHT22;5274;51.992;8.518;2024-03-23T04:22:36;7.50;74.60
10453;DHT22;5274;51.992;8.518;2024-03-23T04:25:02;7.60;74.30
10453;DHT22;5274;51.992;8.518;2024-03-23T04:27:32;7.50;74.30
10453;DHT22;5274;51.992;8.518;2024-03-23T04:29:57;7.50;74.30
10453;DHT22;5274;51.992;8.518;2024-03-23T04:32:23;7.40;74.40
10453;DHT22;5274;51.992;8.518;2024-03-23T04:34:48;7.40;74.80
10453;DHT22;5274;51.992;8.518;2024-03-23T04:37:14;7.40;74.60
10453;DHT22;5274;51.992;8.518;2024-03-23T04:39:39;7.50;73.60
10453;DHT22;5274;51.992;8.518;2024-03-23T04:42:05;7.60;73.60
10453;DHT22;5274;51.992;8.518;2024-03-23T04:44:31;7.60;73.50
10453;DHT22;5274;51.992;8.518;2024-03-23T04:47:00;7.60;73.50
10453;DHT22;5274;51.992;8.518;2024-03-23T04:49:26;7.50;73.80
10453;DHT22;5274;51.992;8.518;2024-03-23T04:51:52;7.50;73.50
10453;DHT22;5274;51.992;8.518;2024-03-23T04:54:17;7.40;73.10
10453;DHT22;5274;51.992;8.518;2024-03-23T04:56:43;7.30;74.00
10453;DHT22;5274;51.992;8.518;2024-03-23T04:59:08;7.40;74.40
10453;DHT22;5274;51.992;8.518;2024-03-23T05:01:34;7.40;74.10
10453;DHT22;5274;51.992;8.518;2024-03-23T05:04:00;7.30;73.80
10453;DHT22;5274;51.992;8.518;2024-03-23T05:06:26;7.20;75.00
10453;DHT22;5274;51.992;8.518;2024-03-23T05:08:52;7.30;74.60
10453;DHT22;5274;51.992;8.518;2024-03-23T05:11:17;7.50;74.20
10453;DHT22;5274;51.992;8.518;2024-03-23T05:13:43;7.50;74.20
10453;DHT22;5274;51.992;8.518;2024-03-23T05:16:09;7.70;73.20
10453;DHT22;5274;51.992;8.518;2024-03-23T05:18:35;7.60;73.40
10453;DHT22;5274;51.992;8.518;2024-03-23T05:21:01;7.40;74.80
10453;DHT22;5274;51.992;8.518;2024-03-23T05:23:28;7.30;75.30
10453;DHT22;5274;51.992;8.518;2024-03-23T05:25:54;7.40;74.50
10453;DHT22;5274;51.992;8.518;2024-03-23T05:28:20;7.30;74.90
10453;DHT22;5274;51.992;8.518;2024-03-23T05:30:55;7.30;75.10
10453;DHT22;5274;51.992;8.518;2024-03-23T05:33:22;7.40;74.60
10453;DHT22;5274;51.992;8.518;2024-03-23T05:35:56;7.30;74.80
10453;DHT22;5274;51.992;8.518;2024-03-23T05:38:22;7.30;74.90
10453;DHT22;5274;51.992;8.518;2024-03-23T05:40:56;7.30;75.10
10453;DHT22;5274;51.992;8.518;2024-03-23T05:43:22;7.50;74.00
10453;DHT22;5274;51.992;8.518;2024-03-23T05:46:06;7.70;73.20
10453;DHT22;5274;51.992;8.518;2024-03-23T05:48:33;7.50;74.00
10453;DHT22;5274;51.992;8.518;2024-03-23T05:50:58;7.50;73.90
10453;DHT22;5274;51.992;8.518;2024-03-23T05:53:24;7.60;74.20
10453;DHT22;5274;51.992;8.518;2024-03-23T05:55:51;7.60;73.70
10453;DHT22;5274;51.992;8.518;2024-03-23T05:58:19;7.60;73.90
10453;DHT22;5274;51.992;8.518;2024-03-23T06:00:45;7.50;73.90
10453;DHT22;5274;51.992;8.518;2024-03-23T06:03:11;7.60;73.80
10453;DHT22;5274;51.992;8.518;2024-03-23T06:05:37;7.60;74.00
10453;DHT22;5274;51.992;8.518;2024-03-23T06:08:03;7.70;73.00
10453;DHT22;5274;51.992;8.518;2024-03-23T06:10:29;7.70;73.10
10453;DHT22;5274;51.992;8.518;2024-03-23T06:12:54;7.80;72.40
10453;DHT22;5274;51.992;8.518;2024-03-23T06:15:20;7.80;72.80
10453;DHT22;5274;51.992;8.518;2024-03-23T06:17:46;7.70;73.40
10453;DHT22;5274;51.992;8.518;2024-03-23T06:20:12;7.70;73.70
10453;DHT22;5274;51.992;8.518;2024-03-23T06:22:38;7.70;73.80
10453;DHT22;5274;51.992;8.518;2024-03-23T06:25:04;7.70;74.20
10453;DHT22;5274;51.992;8.518;2024-03-23T06:27:29;7.70;74.70
10453;DHT22;5274;51.992;8.518;2024-03-23T06:29:55;7.60;75.10
10453;DHT22;5274;51.992;8.518;2024-03-23T06:32:21;7.80;74.60
10453;DHT22;5274;51.992;8.518;2024-03-23T06:34:47;7.90;74.30
10453;DHT22;5274;51.992;8.518;2024-03-23T06:37:12;7.80;74.80
10453;DHT22;5274;51.992;8.518;2024-03-23T06:39:38;7.80;74.30
10453;DHT22;5274;51.992;8.518;2024-03-23T06:42:04;7.70;75.30
10453;DHT22;5274;51.992;8.518;2024-03-23T06:44:30;7.70;75.60
10453;DHT22;5274;51.992;8.518;2024-03-23T06:46:56;7.80;74.80
10453;DHT22;5274;51.992;8.518;2024-03-23T06:49:25;7.80;74.70
10453;DHT22;5274;51.992;8.518;2024-03-23T06:51:50;7.80;75.20
10453;DHT22;5274;51.992;8.518;2024-03-23T06:54:19;7.80;75.60
10453;DHT22;5274;51.992;8.518;2024-03-23T06:56:45;7.80;74.80
10453;DHT22;5274;51.992;8.518;2024-03-23T06:59:11;7.80;74.70
10453;DHT22;5274;51.992;8.518;2024-03-23T07:01:37;7.80;74.60
10453;DHT22;5274;51.992;8.518;2024-03-23T07:04:02;7.70;74.50
10453;DHT22;5274;51.992;8.518;2024-03-23T07:06:29;7.60;74.80
10453;DHT22;5274;51.992;8.518;2024-03-23T07:08:55;7.50;75.00
10453;DHT22;5274;51.992;8.518;2024-03-23T07:11:24;7.50;75.10
10453;DHT22;5274;51.992;8.518;2024-03-23T07:13:50;7.40;75.80
10453;DHT22;5274;51.992;8.518;2024-03-23T07:16:16;7.40;76.30
10453;DHT22;5274;51.992;8.518;2024-03-23T07:18:42;7.50;76.60
10453;DHT22;5274;51.992;8.518;2024-03-23T07:21:07;7.50;76.20
10453;DHT22;5274;51.992;8.518;2024-03-23T07:23:33;7.40;76.30
10453;DHT22;5274;51.992;8.518;2024-03-23T07:26:00;7.50;76.00
10453;DHT22;5274;51.992;8.518;2024-03-23T07:28:26;7.70;75.30
10453;DHT22;5274;51.992;8.518;2024-03-23T07:31:06;7.60;76.20
10453;DHT22;5274;51.992;8.518;2024-03-23T07:33:32;7.70;75.00
10453;DHT22;5274;51.992;8.518;2024-03-23T07:35:58;7.80;75.50
10453;DHT22;5274;51.992;8.518;2024-03-23T07:38:26;7.80;75.30
10453;DHT22;5274;51.992;8.518;2024-03-23T07:40:52;8.00;75.10
10453;DHT22;5274;51.992;8.518;2024-03-23T07:43:22;8.20;73.80
10453;DHT22;5274;51.992;8.518;2024-03-23T07:45:52;8.30;73.00
10453;DHT22;5274;51.992;8.518;2024-03-23T07:48:18;8.20;73.20
10453;DHT22;5274;51.992;8.518;2024-03-23T07:50:43;8.20;73.30
10453;DHT22;5274;51.992;8.518;2024-03-23T07:53:09;8.10;72.90
10453;DHT22;5274;51.992;8.518;2024-03-23T07:55:34;8.00;72.80
10453;DHT22;5274;51.992;8.518;2024-03-23T07:58:00;7.90;73.50
10453;DHT22;5274;51.992;8.518;2024-03-23T08:00:25;7.90;74.30
10453;DHT22;5274;51.992;8.518;2024-03-23T08:02:51;8.00;74.60
10453;DHT22;5274;51.992;8.518;2024-03-23T08:05:17;8.00;74.10
10453;DHT22;5274;51.992;8.518;2024-03-23T08:07:42;8.00;74.00
10453;DHT22;5274;51.992;8.518;2024-03-23T08:10:08;8.10;73.80
10453;DHT22;5274;51.992;8.518;2024-03-23T08:12:33;8.10;73.90
10453;DHT22;5274;51.992;8.518;2024-03-23T08:14:59;8.20;74.40
10453;DHT22;5274;51.992;8.518;2024-03-23T08:17:24;8.40;72.80
10453;DHT22;5274;51.992;8.518;2024-03-23T08:19:50;8.40;72.90
10453;DHT22;5274;51.992;8.518;2024-03-23T08:22:15;8.50;73.30
10453;DHT22;5274;51.992;8.518;2024-03-23T08:24:40;8.80;72.00
10453;DHT22;5274;51.992;8.518;2024-03-23T08:27:06;9.00;71.20
10453;DHT22;5274;51.992;8.518;2024-03-23T08:29:31;9.10;69.90
10453;DHT22;5274;51.992;8.518;2024-03-23T08:31:57;9.00;68.50
10453;DHT22;5274;51.992;8.518;2024-03-23T08:34:22;8.70;69.30
10453;DHT22;5274;51.992;8.518;2024-03-23T08:36:48;8.70;70.60
10453;DHT22;5274;51.992;8.518;2024-03-23T08:39:13;8.70;67.70
10453;DHT22;5274;51.992;8.518;2024-03-23T08:41:39;8.70;67.90
10453;DHT22;5274;51.992;8.518;2024-03-23T08:44:04;8.70;68.40
10453;DHT22;5274;51.992;8.518;2024-03-23T08:46:30;8.80;69.30
10453;DHT22;5274;51.992;8.518;2024-03-23T08:48:55;8.90;68.50
10453;DHT22;5274;51.992;8.518;2024-03-23T08:51:21;8.90;69.20
10453;DHT22;5274;51.992;8.518;2024-03-23T08:53:46;8.90;67.90
10453;DHT22;5274;51.992;8.518;2024-03-23T08:56:12;8.90;65.30
10453;DHT22;5274;51.992;8.518;2024-03-23T08:58:38;8.70;64.80
10453;DHT22;5274;51.992;8.518;2024-03-23T09:01:11;8.70;64.70
10453;DHT22;5274;51.992;8.518;2024-03-23T09:03:40;8.60;65.10
10453;DHT22;5274;51.992;8.518;2024-03-23T09:06:14;8.40;64.80
10453;DHT22;5274;51.992;8.518;2024-03-23T09:08:39;8.40;66.80
10453;DHT22;5274;51.992;8.518;2024-03-23T09:11:07;8.50;67.50
10453;DHT22;5274;51.992;8.518;2024-03-23T09:13:36;8.70;67.60
10453;DHT22;5274;51.992;8.518;2024-03-23T09:16:03;9.00;66.40
10453;DHT22;5274;51.992;8.518;2024-03-23T09:18:32;9.10;64.50
10453;DHT22;5274;51.992;8.518;2024-03-23T09:20:57;9.10;64.70
10453;DHT22;5274;51.992;8.518;2024-03-23T09:23:23;9.00;64.60
10453;DHT22;5274;51.992;8.518;2024-03-23T09:25:48;8.90;63.80
10453;DHT22;5274;51.992;8.518;2024-03-23T09:28:14;8.70;64.10
10453;DHT22;5274;51.992;8.518;2024-03-23T09:30:39;8.60;65.10
10453;DHT22;5274;51.992;8.518;2024-03-23T09:33:09;8.70;66.50
10453;DHT22;5274;51.992;8.518;2024-03-23T09:35:42;8.60;65.50
10453;DHT22;5274;51.992;8.518;2024-03-23T09:38:08;8.50;65.80
10453;DHT22;5274;51.992;8.518;2024-03-23T09:40:39;8.60;67.90
10453;DHT22;5274;51.992;8.518;2024-03-23T09:43:06;8.70;67.80
10453;DHT22;5274;51.992;8.518;2024-03-23T09:45:34;8.80;66.60
10453;DHT22;5274;51.992;8.518;2024-03-23T09:48:01;9.00;66.50
10453;DHT22;5274;51.992;8.518;2024-03-23T09:50:26;9.00;63.20
10453;DHT22;5274;51.992;8.518;2024-03-23T09:52:52;9.10;63.30
10453;DHT22;5274;51.992;8.518;2024-03-23T09:55:18;9.00;63.10
10453;DHT22;5274;51.992;8.518;2024-03-23T09:57:43;9.20;61.70
10453;DHT22;5274;51.992;8.518;2024-03-23T10:00:09;9.30;61.90
10453;DHT22;5274;51.992;8.518;2024-03-23T10:02:35;9.50;60.20
10453;DHT22;5274;51.992;8.518;2024-03-23T10:05:01;9.40;59.70
10453;DHT22;5274;51.992;8.518;2024-03-23T10:07:27;9.40;59.50
10453;DHT22;5274;51.992;8.518;2024-03-23T10:09:55;9.40;59.30
10453;DHT22;5274;51.992;8.518;2024-03-23T10:12:22;9.50;60.70
10453;DHT22;5274;51.992;8.518;2024-03-23T10:14:49;9.80;58.60
10453;DHT22;5274;51.992;8.518;2024-03-23T10:17:22;9.70;62.50
10453;DHT22;5274;51.992;8.518;2024-03-23T10:19:51;9.60;60.90
10453;DHT22;5274;51.992;8.518;2024-03-23T10:22:22;9.50;60.00
10453;DHT22;5274;51.992;8.518;2024-03-23T10:24:48;9.40;64.60
10453;DHT22;5274;51.992;8.518;2024-03-23T10:27:16;9.10;65.10
10453;DHT22;5274;51.992;8.518;2024-03-23T10:29:43;9.00;68.50
10453;DHT22;5274;51.992;8.518;2024-03-23T10:32:13;9.00;66.20
10453;DHT22;5274;51.992;8.518;2024-03-23T10:34:39;8.90;64.10
10453;DHT22;5274;51.992;8.518;2024-03-23T10:37:06;8.90;64.10
10453;DHT22;5274;51.992;8.518;2024-03-23T10:39:39;9.00;64.60
10453;DHT22;5274;51.992;8.518;2024-03-23T10:42:06;9.20;64.20
10453;DHT22;5274;51.992;8.518;2024-03-23T10:44:40;9.30;63.60
10453;DHT22;5274;51.992;8.518;2024-03-23T10:47:05;9.40;61.70
10453;DHT22;5274;51.992;8.518;2024-03-23T10:49:32;9.20;62.40
10453;DHT22;5274;51.992;8.518;2024-03-23T10:51:59;9.20;63.50
10453;DHT22;5274;51.992;8.518;2024-03-23T10:54:25;9.20;64.70
10453;DHT22;5274;51.992;8.518;2024-03-23T10:57:04;9.10;62.90
10453;DHT22;5274;51.992;8.518;2024-03-23T10:59:32;9.20;65.20
10453;DHT22;5274;51.992;8.518;2024-03-23T11:02:00;9.00;62.30
10453;DHT22;5274;51.992;8.518;2024-03-23T11:04:36;8.90;61.20
10453;DHT22;5274;51.992;8.518;2024-03-23T11:07:02;8.80;59.00
10453;DHT22;5274;51.992;8.518;2024-03-23T11:09:40;8.90;60.20
10453;DHT22;5274;51.992;8.518;2024-03-23T11:14:43;8.90;61.00
10453;DHT22;5274;51.992;8.518;2024-03-23T11:17:09;9.10;61.50
10453;DHT22;5274;51.992;8.518;2024-03-23T11:19:38;9.30;61.60
10453;DHT22;5274;51.992;8.518;2024-03-23T11:22:04;9.50;59.30
10453;DHT22;5274;51.992;8.518;2024-03-23T11:24:31;9.70;60.10
10453;DHT22;5274;51.992;8.518;2024-03-23T11:26:56;9.80;58.00
10453;DHT22;5274;51.992;8.518;2024-03-23T11:29:25;9.80;58.70
10453;DHT22;5274;51.992;8.518;2024-03-23T11:31:52;9.90;59.80
10453;DHT22;5274;51.992;8.518;2024-03-23T11:34:19;10.20;58.40
10453;DHT22;5274;51.992;8.518;2024-03-23T11:36:46;10.60;57.80
10453;DHT22;5274;51.992;8.518;2024-03-23T11:39:15;10.80;55.50
10453;DHT22;5274;51.992;8.518;2024-03-23T11:41:52;10.80;52.30
10453;DHT22;5274;51.992;8.518;2024-03-23T11:44:19;10.50;52.70
10453;DHT22;5274;51.992;8.518;2024-03-23T11:46:46;10.20;52.60
10453;DHT22;5274;51.992;8.518;2024-03-23T11:49:27;10.00;52.70
10453;DHT22;5274;51.992;8.518;2024-03-23T11:51:54;9.60;54.40
10453;DHT22;5274;51.992;8.518;2024-03-23T11:54:21;9.50;58.10
10453;DHT22;5274;51.992;8.518;2024-03-23T11:56:57;9.40;59.30
10453;DHT22;5274;51.992;8.518;2024-03-23T11:59:36;9.40;59.30
10453;DHT22;5274;51.992;8.518;2024-03-23T12:02:10;9.50;59.30
10453;DHT22;5274;51.992;8.518;2024-03-23T12:04:37;9.40;58.40
10453;DHT22;5274;51.992;8.518;2024-03-23T12:07:19;9.20;58.90
10453;DHT22;5274;51.992;8.518;2024-03-23T12:09:45;9.30;59.90
10453;DHT22;5274;51.992;8.518;2024-03-23T12:12:16;9.40;59.80
10453;DHT22;5274;51.992;8.518;2024-03-23T12:14:45;9.40;59.00
10453;DHT22;5274;51.992;8.518;2024-03-23T12:17:26;9.40;58.30
10453;DHT22;5274;51.992;8.518;2024-03-23T12:19:51;9.50;60.00
10453;DHT22;5274;51.992;8.518;2024-03-23T12:22:20;9.60;60.10
10453;DHT22;5274;51.992;8.518;2024-03-23T12:24:48;9.80;57.60
10453;DHT22;5274;51.992;8.518;2024-03-23T12:27:13;9.90;56.30
10453;DHT22;5274;51.992;8.518;2024-03-23T12:29:40;9.80;55.20
10453;DHT22;5274;51.992;8.518;2024-03-23T12:32:07;9.60;54.70
10453;DHT22;5274;51.992;8.518;2024-03-23T12:34:33;9.40;55.50
10453;DHT22;5274;51.992;8.518;2024-03-23T12:36:58;9.30;55.00
10453;DHT22;5274;51.992;8.518;2024-03-23T12:39:24;9.30;54.30
10453;DHT22;5274;51.992;8.518;2024-03-23T12:41:50;9.20;54.90
10453;DHT22;5274;51.992;8.518;2024-03-23T12:44:17;9.60;55.20
10453;DHT22;5274;51.992;8.518;2024-03-23T12:46:42;10.10;53.30
10453;DHT22;5274;51.992;8.518;2024-03-23T12:49:08;10.40;50.80
10453;DHT22;5274;51.992;8.518;2024-03-23T12:51:34;10.30;54.70
10453;DHT22;5274;51.992;8.518;2024-03-23T12:53:59;11.50;53.80
10453;DHT22;5274;51.992;8.518;2024-03-23T12:56:25;13.90;49.70
10453;DHT22;5274;51.992;8.518;2024-03-23T12:58:51;16.10;44.10
10453;DHT22;5274;51.992;8.518;2024-03-23T13:01:17;18.20;41.70
10453;DHT22;5274;51.992;8.518;2024-03-23T13:03:49;20.30;37.20
10453;DHT22;5274;51.992;8.518;2024-03-23T13:06:16;21.00;34.20
10453;DHT22;5274;51.992;8.518;2024-03-23T13:08:44;21.20;32.30
10453;DHT22;5274;51.992;8.518;2024-03-23T13:11:10;21.10;33.30
10453;DHT22;5274;51.992;8.518;2024-03-23T13:13:36;21.70;32.20
10453;DHT22;5274;51.992;8.518;2024-03-23T13:16:02;22.10;28.90
10453;DHT22;5274;51.992;8.518;2024-03-23T13:18:29;21.80;32.10
10453;DHT22;5274;51.992;8.518;2024-03-23T13:20:55;22.30;30.60
10453;DHT22;5274;51.992;8.518;2024-03-23T13:23:20;22.70;29.30
10453;DHT22;5274;51.992;8.518;2024-03-23T13:25:53;23.30;29.50
10453;DHT22;5274;51.992;8.518;2024-03-23T13:28:19;22.40;25.90
10453;DHT22;5274;51.992;8.518;2024-03-23T13:30:52;20.10;27.20
10453;DHT22;5274;51.992;8.518;2024-03-23T13:33:17;17.10;31.40
10453;DHT22;5274;51.992;8.518;2024-03-23T13:35:53;15.40;40.70
10453;DHT22;5274;51.992;8.518;2024-03-23T13:38:19;15.40;36.40
10453;DHT22;5274;51.992;8.518;2024-03-23T13:40:52;14.30;38.10
10453;DHT22;5274;51.992;8.518;2024-03-23T13:43:18;12.90;40.90
10453;DHT22;5274;51.992;8.518;2024-03-23T13:45:43;11.70;41.50
10453;DHT22;5274;51.992;8.518;2024-03-23T13:48:09;10.80;47.80
10453;DHT22;5274;51.992;8.518;2024-03-23T13:50:35;10.10;50.70
10453;DHT22;5274;51.992;8.518;2024-03-23T13:53:00;9.90;55.80
10453;DHT22;5274;51.992;8.518;2024-03-23T13:55:26;12.20;52.10
10453;DHT22;5274;51.992;8.518;2024-03-23T13:57:51;15.30;46.30
10453;DHT22;5274;51.992;8.518;2024-03-23T14:00:17;19.10;39.20
10453;DHT22;5274;51.992;8.518;2024-03-23T14:02:44;22.20;33.40
10453;DHT22;5274;51.992;8.518;2024-03-23T14:05:10;24.50;29.50
10453;DHT22;5274;51.992;8.518;2024-03-23T14:07:36;26.50;27.50
10453;DHT22;5274;51.992;8.518;2024-03-23T14:10:05;27.80;25.80
10453;DHT22;5274;51.992;8.518;2024-03-23T14:12:36;27.90;23.60
10453;DHT22;5274;51.992;8.518;2024-03-23T14:15:05;27.10;22.50
10453;DHT22;5274;51.992;8.518;2024-03-23T14:17:31;24.30;23.70
10453;DHT22;5274;51.992;8.518;2024-03-23T14:19:57;21.30;27.40
10453;DHT22;5274;51.992;8.518;2024-03-23T14:22:26;19.10;28.80
10453;DHT22;5274;51.992;8.518;2024-03-23T14:24:52;16.90;32.20
10453;DHT22;5274;51.992;8.518;2024-03-23T14:27:18;14.90;36.00
10453;DHT22;5274;51.992;8.518;2024-03-23T14:29:46;13.60;39.10
10453;DHT22;5274;51.992;8.518;2024-03-23T14:32:12;12.50;46.10
10453;DHT22;5274;51.992;8.518;2024-03-23T14:34:37;11.10;52.30
10453;DHT22;5274;51.992;8.518;2024-03-23T14:37:03;9.80;53.40
10453;DHT22;5274;51.992;8.518;2024-03-23T14:39:29;9.10;59.10
10453;DHT22;5274;51.992;8.518;2024-03-23T14:41:55;8.60;60.70
10453;DHT22;5274;51.992;8.518;2024-03-23T14:44:21;8.50;63.60
10453;DHT22;5274;51.992;8.518;2024-03-23T14:46:47;8.30;62.60
10453;DHT22;5274;51.992;8.518;2024-03-23T14:49:14;8.30;62.30
10453;DHT22;5274;51.992;8.518;2024-03-23T14:51:42;8.20;61.70
10453;DHT22;5274;51.992;8.518;2024-03-23T14:54:07;8.00;62.20
10453;DHT22;5274;51.992;8.518;2024-03-23T14:56:32;7.80;63.50
10453;DHT22;5274;51.992;8.518;2024-03-23T14:59:00;7.70;64.80
10453;DHT22;5274;51.992;8.518;2024-03-23T15:01:25;7.40;65.70
10453;DHT22;5274;51.992;8.518;2024-03-23T15:03:51;7.30;65.70
10453;DHT22;5274;51.992;8.518;2024-03-23T15:06:19;7.20;66.90
10453;DHT22;5274;51.992;8.518;2024-03-23T15:08:44;7.00;66.60
10453;DHT22;5274;51.992;8.518;2024-03-23T15:11:10;6.80;69.00
10453;DHT22;5274;51.992;8.518;2024-03-23T15:13:36;7.10;68.60
10453;DHT22;5274;51.992;8.518;2024-03-23T15:16:03;7.40;68.30
10453;DHT22;5274;51.992;8.518;2024-03-23T15:18:29;7.90;68.80
10453;DHT22;5274;51.992;8.518;2024-03-23T15:20:56;8.50;66.70
10453;DHT22;5274;51.992;8.518;2024-03-23T15:23:22;9.00;63.90
10453;DHT22;5274;51.992;8.518;2024-03-23T15:25:58;9.40;63.20
10453;DHT22;5274;51.992;8.518;2024-03-23T15:28:23;9.40;62.70
10453;DHT22;5274;51.992;8.518;2024-03-23T15:30:49;9.40;61.00
10453;DHT22;5274;51.992;8.518;2024-03-23T15:33:15;9.20;62.20
10453;DHT22;5274;51.992;8.518;2024-03-23T15:35:41;9.20;60.30
10453;DHT22;5274;51.992;8.518;2024-03-23T15:38:06;9.10;61.20
10453;DHT22;5274;51.992;8.518;2024-03-23T15:40:32;9.10;62.70
10453;DHT22;5274;51.992;8.518;2024-03-23T15:42:57;9.10;61.20
10453;DHT22;5274;51.992;8.518;2024-03-23T15:45:23;9.20;62.00
10453;DHT22;5274;51.992;8.518;2024-03-23T15:47:48;9.30;62.30
10453;DHT22;5274;51.992;8.518;2024-03-23T15:50:14;9.40;61.40
10453;DHT22;5274;51.992;8.518;2024-03-23T15:52:40;9.50;62.00
10453;DHT22;5274;51.992;8.518;2024-03-23T15:55:05;9.80;60.70
10453;DHT22;5274;51.992;8.518;2024-03-23T15:57:33;10.00;58.70
10453;DHT22;5274;51.992;8.518;2024-03-23T15:59:59;10.20;58.10
10453;DHT22;5274;51.992;8.518;2024-03-23T16:02:24;10.40;58.90
10453;DHT22;5274;51.992;8.518;2024-03-23T16:04:50;10.20;58.30
10453;DHT22;5274;51.992;8.518;2024-03-23T16:07:16;10.00;58.70
10453;DHT22;5274;51.992;8.518;2024-03-23T16:09:41;10.20;59.10
10453;DHT22;5274;51.992;8.518;2024-03-23T16:12:07;10.40;58.40
10453;DHT22;5274;51.992;8.518;2024-03-23T16:14:32;11.10;57.10
10453;DHT22;5274;51.992;8.518;2024-03-23T16:16:58;12.40;55.20
10453;DHT22;5274;51.992;8.518;2024-03-23T16:19:23;13.90;51.10
10453;DHT22;5274;51.992;8.518;2024-03-23T16:21:49;14.70;43.50
10453;DHT22;5274;51.992;8.518;2024-03-23T16:24:14;13.90;42.70
10453;DHT22;5274;51.992;8.518;2024-03-23T16:26:40;12.20;44.60
10453;DHT22;5274;51.992;8.518;2024-03-23T16:29:05;11.00;48.60
10453;DHT22;5274;51.992;8.518;2024-03-23T16:31:31;10.20;50.50
10453;DHT22;5274;51.992;8.518;2024-03-23T16:33:56;9.60;51.80
10453;DHT22;5274;51.992;8.518;2024-03-23T16:36:22;9.20;53.90
10453;DHT22;5274;51.992;8.518;2024-03-23T16:38:47;8.80;54.70
10453;DHT22;5274;51.992;8.518;2024-03-23T16:41:13;8.70;56.60
10453;DHT22;5274;51.992;8.518;2024-03-23T16:43:41;8.60;57.20
10453;DHT22;5274;51.992;8.518;2024-03-23T16:46:09;8.60;57.30
10453;DHT22;5274;51.992;8.518;2024-03-23T16:48:41;8.60;58.20
10453;DHT22;5274;51.992;8.518;2024-03-23T16:51:08;9.00;55.20